Zim, Minnesota
Current Conditions -  °F | °C
As of 8:53 AM on Tuesday 21 Oct 2014 (Local Time) from KHIB Reporting Station
Overcast Overcast  
Wind Chill: 37°   Ceiling: 1500
Heat Index: 42°   Visibility: 10mi
Dew Point: 35°   Wind: 9mph
Humidity: 76%   Direction: 130°SE
Pressure: 30.2"   Gusts: NA
Location:  47.2679°N, 92.6342°W
Report Text: KHIB 211353Z AUTO 13008KT 10SM OVC015 06/02 A3020 RMK AO2 SLP240 T00560017
Loading
Personal Weather Stations






























Interactive Weather Map
Tropical Storm Tracking
New forecast layout! Learn more

10-Day Weather Forecast

Advertisements
Track Severe Weather on mobile